sensor_id;sensor_type;location;lat;lon;timestamp;temperature;humidity
20594;DHT22;10455;48.732;10.266;2023-05-24T00:02:33;9.80;99.90
20594;DHT22;10455;48.732;10.266;2023-05-24T00:07:37;9.80;99.90
20594;DHT22;10455;48.732;10.266;2023-05-24T00:12:39;9.80;99.90
20594;DHT22;10455;48.732;10.266;2023-05-24T00:17:42;9.80;99.90
20594;DHT22;10455;48.732;10.266;2023-05-24T00:22:44;9.60;99.90
20594;DHT22;10455;48.732;10.266;2023-05-24T00:27:46;9.30;99.90
20594;DHT22;10455;48.732;10.266;2023-05-24T00:32:50;9.10;99.90
20594;DHT22;10455;48.732;10.266;2023-05-24T00:37:51;9.10;99.90
20594;DHT22;10455;48.732;10.266;2023-05-24T00:42:54;9.10;99.90
20594;DHT22;10455;48.732;10.266;2023-05-24T00:47:57;9.00;99.90
20594;DHT22;10455;48.732;10.266;2023-05-24T00:53:00;9.00;99.90
20594;DHT22;10455;48.732;10.266;2023-05-24T00:58:03;9.20;99.90
20594;DHT22;10455;48.732;10.266;2023-05-24T01:03:06;9.10;99.90
20594;DHT22;10455;48.732;10.266;2023-05-24T01:08:16;9.10;99.90
20594;DHT22;10455;48.732;10.266;2023-05-24T01:13:26;9.00;99.90
20594;DHT22;10455;48.732;10.266;2023-05-24T01:18:32;8.80;99.90
20594;DHT22;10455;48.732;10.266;2023-05-24T01:23:43;8.70;99.90
20594;DHT22;10455;48.732;10.266;2023-05-24T01:28:50;8.70;99.90
20594;DHT22;10455;48.732;10.266;2023-05-24T01:33:52;8.60;99.90
20594;DHT22;10455;48.732;10.266;2023-05-24T01:38:54;8.40;99.90
20594;DHT22;10455;48.732;10.266;2023-05-24T01:44:02;8.20;99.90
20594;DHT22;10455;48.732;10.266;2023-05-24T01:49:20;8.20;99.90
20594;DHT22;10455;48.732;10.266;2023-05-24T01:54:25;8.20;99.90
20594;DHT22;10455;48.732;10.266;2023-05-24T01:59:31;8.00;99.90
20594;DHT22;10455;48.732;10.266;2023-05-24T02:04:34;7.90;99.90
20594;DHT22;10455;48.732;10.266;2023-05-24T02:09:35;7.80;99.90
20594;DHT22;10455;48.732;10.266;2023-05-24T02:14:39;7.80;99.90
20594;DHT22;10455;48.732;10.266;2023-05-24T02:19:42;7.80;99.90
20594;DHT22;10455;48.732;10.266;2023-05-24T02:24:43;7.90;99.90
20594;DHT22;10455;48.732;10.266;2023-05-24T02:29:49;7.90;99.90
20594;DHT22;10455;48.732;10.266;2023-05-24T02:34:52;7.90;99.90
20594;DHT22;10455;48.732;10.266;2023-05-24T02:39:54;7.50;99.90
20594;DHT22;10455;48.732;10.266;2023-05-24T02:44:57;7.20;99.90
20594;DHT22;10455;48.732;10.266;2023-05-24T02:49:59;7.00;99.90
20594;DHT22;10455;48.732;10.266;2023-05-24T02:55:01;7.00;99.90
20594;DHT22;10455;48.732;10.266;2023-05-24T03:00:05;6.90;99.90
20594;DHT22;10455;48.732;10.266;2023-05-24T03:05:08;6.60;99.90
20594;DHT22;10455;48.732;10.266;2023-05-24T03:10:10;6.40;99.90
20594;DHT22;10455;48.732;10.266;2023-05-24T03:15:14;6.50;99.90
20594;DHT22;10455;48.732;10.266;2023-05-24T03:20:16;6.60;99.90
20594;DHT22;10455;48.732;10.266;2023-05-24T03:25:20;6.90;99.90
20594;DHT22;10455;48.732;10.266;2023-05-24T03:30:23;7.00;99.90
20594;DHT22;10455;48.732;10.266;2023-05-24T03:35:25;7.00;99.90
20594;DHT22;10455;48.732;10.266;2023-05-24T03:40:27;7.10;99.90
20594;DHT22;10455;48.732;10.266;2023-05-24T03:45:33;7.50;99.90
20594;DHT22;10455;48.732;10.266;2023-05-24T03:50:35;7.70;99.90
20594;DHT22;10455;48.732;10.266;2023-05-24T03:55:37;8.00;99.90
20594;DHT22;10455;48.732;10.266;2023-05-24T04:00:40;8.20;99.90
20594;DHT22;10455;48.732;10.266;2023-05-24T04:05:42;8.30;99.90
20594;DHT22;10455;48.732;10.266;2023-05-24T04:10:44;8.50;99.90
20594;DHT22;10455;48.732;10.266;2023-05-24T04:15:47;8.50;99.90
20594;DHT22;10455;48.732;10.266;2023-05-24T04:20:49;8.80;99.90
20594;DHT22;10455;48.732;10.266;2023-05-24T04:25:51;9.10;99.90
20594;DHT22;10455;48.732;10.266;2023-05-24T04:30:55;9.40;99.90
20594;DHT22;10455;48.732;10.266;2023-05-24T04:35:58;9.60;99.90
20594;DHT22;10455;48.732;10.266;2023-05-24T04:41:01;9.90;99.90
20594;DHT22;10455;48.732;10.266;2023-05-24T04:46:04;9.50;99.90
20594;DHT22;10455;48.732;10.266;2023-05-24T04:51:06;9.60;99.90
20594;DHT22;10455;48.732;10.266;2023-05-24T04:56:08;9.80;99.90
20594;DHT22;10455;48.732;10.266;2023-05-24T05:01:15;9.70;99.90
20594;DHT22;10455;48.732;10.266;2023-05-24T05:06:17;9.50;99.90
20594;DHT22;10455;48.732;10.266;2023-05-24T05:11:19;9.40;99.90
20594;DHT22;10455;48.732;10.266;2023-05-24T05:16:22;9.70;99.90
20594;DHT22;10455;48.732;10.266;2023-05-24T05:21:24;10.00;99.90
20594;DHT22;10455;48.732;10.266;2023-05-24T05:26:27;10.00;99.90
20594;DHT22;10455;48.732;10.266;2023-05-24T05:31:30;10.30;99.90
20594;DHT22;10455;48.732;10.266;2023-05-24T05:36:32;10.00;99.90
20594;DHT22;10455;48.732;10.266;2023-05-24T05:41:37;9.90;99.90
20594;DHT22;10455;48.732;10.266;2023-05-24T05:46:43;10.10;99.90
20594;DHT22;10455;48.732;10.266;2023-05-24T05:51:45;10.40;99.90
20594;DHT22;10455;48.732;10.266;2023-05-24T05:56:47;10.20;99.90
20594;DHT22;10455;48.732;10.266;2023-05-24T06:01:50;10.50;99.90
20594;DHT22;10455;48.732;10.266;2023-05-24T06:06:52;10.70;99.90
20594;DHT22;10455;48.732;10.266;2023-05-24T06:11:54;11.40;99.90
20594;DHT22;10455;48.732;10.266;2023-05-24T06:16:58;11.70;99.90
20594;DHT22;10455;48.732;10.266;2023-05-24T06:22:00;12.00;99.90
20594;DHT22;10455;48.732;10.266;2023-05-24T06:27:02;12.80;99.90
20594;DHT22;10455;48.732;10.266;2023-05-24T06:32:05;11.80;99.90
20594;DHT22;10455;48.732;10.266;2023-05-24T06:37:15;10.90;99.90
20594;DHT22;10455;48.732;10.266;2023-05-24T06:42:20;11.20;99.90
20594;DHT22;10455;48.732;10.266;2023-05-24T06:47:26;11.60;99.90
20594;DHT22;10455;48.732;10.266;2023-05-24T06:52:34;11.70;99.90
20594;DHT22;10455;48.732;10.266;2023-05-24T06:57:36;11.80;99.90
20594;DHT22;10455;48.732;10.266;2023-05-24T07:02:41;12.10;99.90
20594;DHT22;10455;48.732;10.266;2023-05-24T07:07:46;12.00;99.90
20594;DHT22;10455;48.732;10.266;2023-05-24T07:12:48;11.50;99.90
20594;DHT22;10455;48.732;10.266;2023-05-24T07:17:55;11.20;99.90
20594;DHT22;10455;48.732;10.266;2023-05-24T07:22:59;11.40;99.90
20594;DHT22;10455;48.732;10.266;2023-05-24T07:28:03;12.00;99.90
20594;DHT22;10455;48.732;10.266;2023-05-24T07:33:09;12.40;99.90
20594;DHT22;10455;48.732;10.266;2023-05-24T07:38:11;12.80;99.90
20594;DHT22;10455;48.732;10.266;2023-05-24T07:43:15;12.30;99.90
20594;DHT22;10455;48.732;10.266;2023-05-24T07:48:20;12.60;99.90
20594;DHT22;10455;48.732;10.266;2023-05-24T07:53:22;12.90;99.90
20594;DHT22;10455;48.732;10.266;2023-05-24T07:58:28;13.30;99.90
20594;DHT22;10455;48.732;10.266;2023-05-24T08:03:37;13.70;99.90
20594;DHT22;10455;48.732;10.266;2023-05-24T08:08:39;14.00;99.90
20594;DHT22;10455;48.732;10.266;2023-05-24T08:14:03;14.20;99.90
20594;DHT22;10455;48.732;10.266;2023-05-24T08:19:10;14.20;99.90
20594;DHT22;10455;48.732;10.266;2023-05-24T08:24:15;14.10;99.90
20594;DHT22;10455;48.732;10.266;2023-05-24T08:29:17;13.80;99.90
20594;DHT22;10455;48.732;10.266;2023-05-24T08:34:21;15.10;99.90
20594;DHT22;10455;48.732;10.266;2023-05-24T08:39:24;15.00;99.90
20594;DHT22;10455;48.732;10.266;2023-05-24T08:44:26;14.50;99.90
20594;DHT22;10455;48.732;10.266;2023-05-24T08:49:34;13.90;99.90
20594;DHT22;10455;48.732;10.266;2023-05-24T08:54:40;13.80;99.90
20594;DHT22;10455;48.732;10.266;2023-05-24T08:59:43;14.00;99.90
20594;DHT22;10455;48.732;10.266;2023-05-24T09:04:51;15.00;99.90
20594;DHT22;10455;48.732;10.266;2023-05-24T09:10:04;16.10;99.90
20594;DHT22;10455;48.732;10.266;2023-05-24T09:15:09;16.40;99.90
20594;DHT22;10455;48.732;10.266;2023-05-24T09:20:14;15.80;99.90
20594;DHT22;10455;48.732;10.266;2023-05-24T09:25:17;16.30;99.90
20594;DHT22;10455;48.732;10.266;2023-05-24T09:30:20;19.00;99.90
20594;DHT22;10455;48.732;10.266;2023-05-24T09:35:26;16.50;99.90
20594;DHT22;10455;48.732;10.266;2023-05-24T09:40:31;16.30;99.90
20594;DHT22;10455;48.732;10.266;2023-05-24T09:45:43;17.00;99.90
20594;DHT22;10455;48.732;10.266;2023-05-24T09:50:57;16.30;99.90
20594;DHT22;10455;48.732;10.266;2023-05-24T09:56:08;15.60;99.90
20594;DHT22;10455;48.732;10.266;2023-05-24T10:01:10;14.40;99.90
20594;DHT22;10455;48.732;10.266;2023-05-24T10:06:18;13.80;99.90
20594;DHT22;10455;48.732;10.266;2023-05-24T10:11:20;13.60;99.90
20594;DHT22;10455;48.732;10.266;2023-05-24T10:16:22;13.80;99.90
20594;DHT22;10455;48.732;10.266;2023-05-24T10:21:27;14.30;99.90
20594;DHT22;10455;48.732;10.266;2023-05-24T10:26:31;14.90;99.90
20594;DHT22;10455;48.732;10.266;2023-05-24T10:31:38;16.10;99.90
20594;DHT22;10455;48.732;10.266;2023-05-24T10:36:43;15.00;99.90
20594;DHT22;10455;48.732;10.266;2023-05-24T10:41:46;16.00;99.90
20594;DHT22;10455;48.732;10.266;2023-05-24T10:47:08;16.40;99.90
20594;DHT22;10455;48.732;10.266;2023-05-24T10:52:13;14.00;99.90
20594;DHT22;10455;48.732;10.266;2023-05-24T10:57:21;13.90;99.90
20594;DHT22;10455;48.732;10.266;2023-05-24T11:02:26;15.40;99.90
20594;DHT22;10455;48.732;10.266;2023-05-24T11:07:31;14.70;99.90
20594;DHT22;10455;48.732;10.266;2023-05-24T11:12:42;13.90;99.90
20594;DHT22;10455;48.732;10.266;2023-05-24T11:18:12;13.20;99.90
20594;DHT22;10455;48.732;10.266;2023-05-24T11:23:18;13.10;99.90
20594;DHT22;10455;48.732;10.266;2023-05-24T11:28:20;13.60;99.90
20594;DHT22;10455;48.732;10.266;2023-05-24T11:33:23;14.20;99.90
20594;DHT22;10455;48.732;10.266;2023-05-24T11:38:28;14.40;99.90
20594;DHT22;10455;48.732;10.266;2023-05-24T11:43:30;13.30;99.90
20594;DHT22;10455;48.732;10.266;2023-05-24T11:48:32;13.10;99.90
20594;DHT22;10455;48.732;10.266;2023-05-24T11:53:36;14.70;99.90
20594;DHT22;10455;48.732;10.266;2023-05-24T11:58:46;15.30;99.90
20594;DHT22;10455;48.732;10.266;2023-05-24T12:03:50;14.90;99.90
20594;DHT22;10455;48.732;10.266;2023-05-24T12:08:54;14.90;99.90
20594;DHT22;10455;48.732;10.266;2023-05-24T12:13:57;14.10;99.90
20594;DHT22;10455;48.732;10.266;2023-05-24T12:19:01;13.50;99.90
20594;DHT22;10455;48.732;10.266;2023-05-24T12:24:08;12.70;99.90
20594;DHT22;10455;48.732;10.266;2023-05-24T12:29:13;13.20;99.90
20594;DHT22;10455;48.732;10.266;2023-05-24T12:34:18;12.40;99.90
20594;DHT22;10455;48.732;10.266;2023-05-24T12:39:25;12.60;99.90
20594;DHT22;10455;48.732;10.266;2023-05-24T12:44:33;14.10;99.90
20594;DHT22;10455;48.732;10.266;2023-05-24T12:49:36;14.00;99.90
20594;DHT22;10455;48.732;10.266;2023-05-24T12:54:39;14.00;99.90
20594;DHT22;10455;48.732;10.266;2023-05-24T12:59:41;14.00;99.90
20594;DHT22;10455;48.732;10.266;2023-05-24T13:04:44;14.00;99.90
20594;DHT22;10455;48.732;10.266;2023-05-24T13:09:48;13.30;99.90
20594;DHT22;10455;48.732;10.266;2023-05-24T13:14:52;14.30;99.90
20594;DHT22;10455;48.732;10.266;2023-05-24T13:19:54;15.00;99.90
20594;DHT22;10455;48.732;10.266;2023-05-24T13:25:00;14.40;99.90
20594;DHT22;10455;48.732;10.266;2023-05-24T13:30:05;14.60;99.90
20594;DHT22;10455;48.732;10.266;2023-05-24T13:35:08;16.60;99.90
20594;DHT22;10455;48.732;10.266;2023-05-24T13:40:12;17.50;99.90
20594;DHT22;10455;48.732;10.266;2023-05-24T13:45:15;17.10;99.90
20594;DHT22;10455;48.732;10.266;2023-05-24T13:50:17;18.20;97.80
20594;DHT22;10455;48.732;10.266;2023-05-24T13:55:24;16.30;97.20
20594;DHT22;10455;48.732;10.266;2023-05-24T14:00:28;16.30;97.50
20594;DHT22;10455;48.732;10.266;2023-05-24T14:05:31;17.10;97.60
20594;DHT22;10455;48.732;10.266;2023-05-24T14:10:36;17.40;97.60
20594;DHT22;10455;48.732;10.266;2023-05-24T14:15:40;17.60;97.60
20594;DHT22;10455;48.732;10.266;2023-05-24T14:20:42;17.80;95.90
20594;DHT22;10455;48.732;10.266;2023-05-24T14:25:46;19.10;93.70
20594;DHT22;10455;48.732;10.266;2023-05-24T14:30:48;19.10;96.00
20594;DHT22;10455;48.732;10.266;2023-05-24T14:35:50;18.70;95.00
20594;DHT22;10455;48.732;10.266;2023-05-24T14:40:54;20.10;94.70
20594;DHT22;10455;48.732;10.266;2023-05-24T14:45:57;20.20;93.00
20594;DHT22;10455;48.732;10.266;2023-05-24T14:50:59;18.80;94.40
20594;DHT22;10455;48.732;10.266;2023-05-24T14:56:03;18.60;97.50
20594;DHT22;10455;48.732;10.266;2023-05-24T15:01:07;18.90;94.20
20594;DHT22;10455;48.732;10.266;2023-05-24T15:06:08;19.50;92.70
20594;DHT22;10455;48.732;10.266;2023-05-24T15:11:12;19.90;91.90
20594;DHT22;10455;48.732;10.266;2023-05-24T15:16:16;18.20;93.20
20594;DHT22;10455;48.732;10.266;2023-05-24T15:21:19;19.20;93.30
20594;DHT22;10455;48.732;10.266;2023-05-24T15:26:22;20.60;91.60
20594;DHT22;10455;48.732;10.266;2023-05-24T15:31:24;19.50;94.00
20594;DHT22;10455;48.732;10.266;2023-05-24T15:36:26;18.50;94.60
20594;DHT22;10455;48.732;10.266;2023-05-24T15:41:29;18.30;93.40
20594;DHT22;10455;48.732;10.266;2023-05-24T15:46:31;18.30;94.60
20594;DHT22;10455;48.732;10.266;2023-05-24T15:51:34;19.50;93.20
20594;DHT22;10455;48.732;10.266;2023-05-24T15:56:39;19.10;92.90
20594;DHT22;10455;48.732;10.266;2023-05-24T16:01:41;20.60;93.00
20594;DHT22;10455;48.732;10.266;2023-05-24T16:06:43;19.10;95.00
20594;DHT22;10455;48.732;10.266;2023-05-24T16:11:46;18.70;94.10
20594;DHT22;10455;48.732;10.266;2023-05-24T16:16:48;17.50;95.10
20594;DHT22;10455;48.732;10.266;2023-05-24T16:21:50;15.70;98.30
20594;DHT22;10455;48.732;10.266;2023-05-24T16:26:53;15.20;99.20
20594;DHT22;10455;48.732;10.266;2023-05-24T16:31:55;15.20;99.50
20594;DHT22;10455;48.732;10.266;2023-05-24T16:36:57;15.70;99.90
20594;DHT22;10455;48.732;10.266;2023-05-24T16:42:00;15.90;99.10
20594;DHT22;10455;48.732;10.266;2023-05-24T16:47:03;15.40;99.40
20594;DHT22;10455;48.732;10.266;2023-05-24T16:52:05;15.20;99.90
20594;DHT22;10455;48.732;10.266;2023-05-24T16:57:08;14.90;99.90
20594;DHT22;10455;48.732;10.266;2023-05-24T17:02:10;14.70;98.20
20594;DHT22;10455;48.732;10.266;2023-05-24T17:07:12;14.40;99.90
20594;DHT22;10455;48.732;10.266;2023-05-24T17:12:15;14.60;99.90
20594;DHT22;10455;48.732;10.266;2023-05-24T17:17:17;14.40;99.90
20594;DHT22;10455;48.732;10.266;2023-05-24T17:22:19;14.40;99.90
20594;DHT22;10455;48.732;10.266;2023-05-24T17:27:23;14.10;99.90
20594;DHT22;10455;48.732;10.266;2023-05-24T17:32:25;14.20;99.90
20594;DHT22;10455;48.732;10.266;2023-05-24T17:37:26;13.90;99.90
20594;DHT22;10455;48.732;10.266;2023-05-24T17:42:30;14.10;99.90
20594;DHT22;10455;48.732;10.266;2023-05-24T17:47:32;14.10;99.90
20594;DHT22;10455;48.732;10.266;2023-05-24T17:52:33;13.80;99.90
20594;DHT22;10455;48.732;10.266;2023-05-24T17:57:37;14.10;99.90
20594;DHT22;10455;48.732;10.266;2023-05-24T18:02:38;14.00;99.90
20594;DHT22;10455;48.732;10.266;2023-05-24T18:07:40;13.80;99.90
20594;DHT22;10455;48.732;10.266;2023-05-24T18:12:44;13.60;99.90
20594;DHT22;10455;48.732;10.266;2023-05-24T18:17:46;13.70;99.90
20594;DHT22;10455;48.732;10.266;2023-05-24T18:22:47;13.50;99.90
20594;DHT22;10455;48.732;10.266;2023-05-24T18:27:51;13.50;99.90
20594;DHT22;10455;48.732;10.266;2023-05-24T18:32:53;13.30;99.90
20594;DHT22;10455;48.732;10.266;2023-05-24T18:37:56;13.30;99.90
20594;DHT22;10455;48.732;10.266;2023-05-24T18:43:00;13.10;99.90
20594;DHT22;10455;48.732;10.266;2023-05-24T18:48:02;13.20;99.90
20594;DHT22;10455;48.732;10.266;2023-05-24T18:53:05;13.00;99.90
20594;DHT22;10455;48.732;10.266;2023-05-24T18:58:09;13.00;99.90
20594;DHT22;10455;48.732;10.266;2023-05-24T19:03:11;12.80;99.90
20594;DHT22;10455;48.732;10.266;2023-05-24T19:08:13;12.90;99.90
20594;DHT22;10455;48.732;10.266;2023-05-24T19:13:16;13.10;99.90
20594;DHT22;10455;48.732;10.266;2023-05-24T19:18:18;12.70;99.90
20594;DHT22;10455;48.732;10.266;2023-05-24T19:23:21;12.00;99.90
20594;DHT22;10455;48.732;10.266;2023-05-24T19:28:24;11.70;99.90
20594;DHT22;10455;48.732;10.266;2023-05-24T19:33:26;11.80;99.90
20594;DHT22;10455;48.732;10.266;2023-05-24T19:38:28;11.40;99.90
20594;DHT22;10455;48.732;10.266;2023-05-24T19:43:31;11.30;99.90
20594;DHT22;10455;48.732;10.266;2023-05-24T19:48:33;11.00;99.90
20594;DHT22;10455;48.732;10.266;2023-05-24T19:53:35;10.80;99.90
20594;DHT22;10455;48.732;10.266;2023-05-24T19:58:39;10.60;99.90
20594;DHT22;10455;48.732;10.266;2023-05-24T20:03:41;10.50;99.90
20594;DHT22;10455;48.732;10.266;2023-05-24T20:08:47;10.30;99.90
20594;DHT22;10455;48.732;10.266;2023-05-24T20:13:50;10.40;99.90
20594;DHT22;10455;48.732;10.266;2023-05-24T20:18:52;10.40;99.90
20594;DHT22;10455;48.732;10.266;2023-05-24T20:23:54;10.30;99.90
20594;DHT22;10455;48.732;10.266;2023-05-24T20:28:57;10.10;99.90
20594;DHT22;10455;48.732;10.266;2023-05-24T20:33:59;9.90;99.90
20594;DHT22;10455;48.732;10.266;2023-05-24T20:39:01;9.80;99.90
20594;DHT22;10455;48.732;10.266;2023-05-24T20:44:05;9.90;99.90
20594;DHT22;10455;48.732;10.266;2023-05-24T20:49:07;10.10;99.90
20594;DHT22;10455;48.732;10.266;2023-05-24T20:54:08;10.10;99.90
20594;DHT22;10455;48.732;10.266;2023-05-24T20:59:12;10.10;99.90
20594;DHT22;10455;48.732;10.266;2023-05-24T21:04:14;10.20;99.90
20594;DHT22;10455;48.732;10.266;2023-05-24T21:09:16;10.20;99.90
20594;DHT22;10455;48.732;10.266;2023-05-24T21:14:19;10.20;99.90
20594;DHT22;10455;48.732;10.266;2023-05-24T21:19:21;10.10;99.90
20594;DHT22;10455;48.732;10.266;2023-05-24T21:24:23;10.00;99.90
20594;DHT22;10455;48.732;10.266;2023-05-24T21:29:26;9.70;99.90
20594;DHT22;10455;48.732;10.266;2023-05-24T21:34:28;9.70;99.90
20594;DHT22;10455;48.732;10.266;2023-05-24T21:39:31;9.10;99.90
20594;DHT22;10455;48.732;10.266;2023-05-24T21:44:34;9.10;99.90
20594;DHT22;10455;48.732;10.266;2023-05-24T21:49:36;9.00;99.90
20594;DHT22;10455;48.732;10.266;2023-05-24T22:04:44;8.90;99.90
20594;DHT22;10455;48.732;10.266;2023-05-24T22:09:47;9.00;99.90
20594;DHT22;10455;48.732;10.266;2023-05-24T22:14:52;8.90;99.90
20594;DHT22;10455;48.732;10.266;2023-05-24T22:19:54;8.80;99.90
20594;DHT22;10455;48.732;10.266;2023-05-24T22:24:57;8.90;99.90
20594;DHT22;10455;48.732;10.266;2023-05-24T22:30:04;8.60;99.90
20594;DHT22;10455;48.732;10.266;2023-05-24T22:35:10;8.60;99.90
20594;DHT22;10455;48.732;10.266;2023-05-24T22:40:13;8.80;99.90
20594;DHT22;10455;48.732;10.266;2023-05-24T22:45:17;8.90;99.90
20594;DHT22;10455;48.732;10.266;2023-05-24T22:50:19;9.20;99.90
20594;DHT22;10455;48.732;10.266;2023-05-24T22:55:21;9.30;99.90
20594;DHT22;10455;48.732;10.266;2023-05-24T23:00:25;9.40;99.90
20594;DHT22;10455;48.732;10.266;2023-05-24T23:05:27;9.40;99.90
20594;DHT22;10455;48.732;10.266;2023-05-24T23:10:30;9.10;99.90
20594;DHT22;10455;48.732;10.266;2023-05-24T23:15:33;9.20;99.90
20594;DHT22;10455;48.732;10.266;2023-05-24T23:20:35;9.00;99.90
20594;DHT22;10455;48.732;10.266;2023-05-24T23:25:39;9.00;99.90
20594;DHT22;10455;48.732;10.266;2023-05-24T23:30:44;8.90;99.90
20594;DHT22;10455;48.732;10.266;2023-05-24T23:35:46;9.10;99.90
20594;DHT22;10455;48.732;10.266;2023-05-24T23:40:48;9.10;99.90
20594;DHT22;10455;48.732;10.266;2023-05-24T23:45:52;9.10;99.90
20594;DHT22;10455;48.732;10.266;2023-05-24T23:50:54;9.10;99.90
20594;DHT22;10455;48.732;10.266;2023-05-24T23:55:56;9.00;99.90
